createdAt,value
2019-01-31T00:02:36.904Z,-0.90
2019-01-31T00:05:35.284Z,-0.80
2019-01-31T00:09:08.896Z,-0.80
2019-01-31T00:12:19.150Z,-0.80
2019-01-31T00:15:09.404Z,-1.00
2019-01-31T00:17:59.100Z,-1.00
2019-01-31T00:21:02.004Z,-1.00
2019-01-31T00:24:07.762Z,-1.00
2019-01-31T00:27:09.825Z,-1.10
2019-01-31T00:29:58.405Z,-1.00
2019-01-31T00:33:25.632Z,-1.00
2019-01-31T00:40:11.751Z,-1.00
2019-01-31T00:43:14.637Z,-1.00
2019-01-31T00:46:21.830Z,-1.00
2019-01-31T00:49:41.712Z,-0.90
2019-01-31T00:52:53.712Z,-0.90
2019-01-31T00:56:01.615Z,-0.90
2019-01-31T00:58:55.692Z,-1.00
2019-01-31T01:02:14.758Z,-1.00
2019-01-31T01:05:18.874Z,-1.10
2019-01-31T01:08:24.626Z,-1.20
2019-01-31T01:11:05.802Z,-1.10
2019-01-31T01:14:11.409Z,-1.10
2019-01-31T01:16:59.699Z,-1.00
2019-01-31T01:20:10.982Z,-1.00
2019-01-31T01:22:56.664Z,-0.90
2019-01-31T01:26:31.090Z,-1.00
2019-01-31T01:29:38.076Z,-1.10
2019-01-31T01:32:40.406Z,-1.10
2019-01-31T01:36:02.896Z,-1.20
2019-01-31T01:39:24.620Z,-1.30
2019-01-31T01:42:47.409Z,-1.30
2019-01-31T01:45:51.076Z,-1.20
2019-01-31T01:48:35.408Z,-1.20
2019-01-31T01:51:49.273Z,-1.20
2019-01-31T01:55:08.951Z,-1.10
2019-01-31T01:58:47.882Z,-1.20
2019-01-31T02:02:07.412Z,-1.30
2019-01-31T02:05:03.409Z,-1.30
2019-01-31T02:08:17.020Z,-1.30
2019-01-31T02:11:36.905Z,-1.20
2019-01-31T02:15:21.775Z,-1.20
2019-01-31T02:18:07.867Z,-1.20
2019-01-31T02:21:19.413Z,-1.30
2019-01-31T02:24:16.414Z,-1.20
2019-01-31T02:27:28.816Z,-1.30
2019-01-31T02:30:33.751Z,-1.30
2019-01-31T02:33:43.422Z,-1.30
2019-01-31T02:36:57.423Z,-1.20
2019-01-31T02:40:08.630Z,-1.20
2019-01-31T02:43:21.955Z,-1.30
2019-01-31T02:46:24.839Z,-1.30
2019-01-31T02:49:37.431Z,-1.30
2019-01-31T02:52:42.901Z,-1.20
2019-01-31T02:55:47.836Z,-1.10
2019-01-31T02:58:49.417Z,-1.10
2019-01-31T03:02:16.437Z,-1.00
2019-01-31T03:05:16.164Z,-1.00
2019-01-31T03:08:21.917Z,-1.00
2019-01-31T03:11:23.769Z,-0.90
2019-01-31T03:18:06.439Z,-0.80
2019-01-31T03:25:14.850Z,-0.80
2019-01-31T03:28:15.076Z,-0.80
2019-01-31T03:31:27.790Z,-0.60
2019-01-31T03:34:40.925Z,-0.60
2019-01-31T03:37:52.814Z,-0.70
2019-01-31T03:41:15.419Z,-0.80
2019-01-31T03:44:14.419Z,-0.60
2019-01-31T03:47:10.893Z,-0.50
2019-01-31T03:50:06.759Z,-0.40
2019-01-31T03:53:30.808Z,-0.40
2019-01-31T03:56:39.827Z,-0.40
2019-01-31T03:59:21.821Z,-0.50
2019-01-31T04:02:51.332Z,-0.40
2019-01-31T04:06:11.631Z,-0.40
2019-01-31T04:08:50.758Z,-0.40
2019-01-31T04:11:27.838Z,-0.30
2019-01-31T04:14:05.956Z,-0.20
2019-01-31T04:16:41.416Z,-0.30
2019-01-31T04:19:19.903Z,-0.30
2019-01-31T04:21:55.985Z,-0.30
2019-01-31T04:24:31.434Z,-0.40
2019-01-31T04:27:08.993Z,-0.40
2019-01-31T04:29:52.254Z,-0.40
2019-01-31T04:32:27.974Z,-0.30
2019-01-31T04:35:02.423Z,-0.30
2019-01-31T04:37:36.429Z,-0.30
2019-01-31T04:40:13.690Z,-0.20
2019-01-31T04:42:50.420Z,-0.30
2019-01-31T04:45:25.424Z,-0.20
2019-01-31T04:47:58.424Z,-0.20
2019-01-31T04:50:33.819Z,-0.20
2019-01-31T04:53:10.699Z,-0.20
2019-01-31T04:55:46.423Z,-0.30
2019-01-31T04:58:21.379Z,-0.30
2019-01-31T05:00:57.845Z,-0.30
2019-01-31T05:03:33.914Z,-0.30
2019-01-31T05:06:09.961Z,-0.40
2019-01-31T05:08:46.836Z,-0.30
2019-01-31T05:11:23.106Z,-0.30
2019-01-31T05:14:01.208Z,-0.20
2019-01-31T05:16:40.346Z,-0.20
2019-01-31T05:19:17.824Z,-0.20
2019-01-31T05:21:53.683Z,-0.10
2019-01-31T05:24:30.768Z,0.00
2019-01-31T05:27:06.816Z,-0.10
2019-01-31T05:29:41.650Z,-0.20
2019-01-31T05:32:31.633Z,-0.30
2019-01-31T05:35:07.425Z,-0.40
2019-01-31T05:37:42.107Z,-0.50
2019-01-31T05:40:19.802Z,-0.50
2019-01-31T05:42:57.915Z,-0.50
2019-01-31T05:45:37.243Z,-0.70
2019-01-31T05:48:16.985Z,-0.80
2019-01-31T05:50:55.306Z,-0.90
2019-01-31T05:53:30.126Z,-1.00
2019-01-31T05:56:05.980Z,-1.00
2019-01-31T05:58:41.833Z,-0.90
2019-01-31T06:01:21.779Z,-0.90
2019-01-31T06:03:58.657Z,-0.80
2019-01-31T06:06:34.944Z,-0.80
2019-01-31T06:09:12.441Z,-0.70
2019-01-31T06:11:47.036Z,-0.60
2019-01-31T06:14:25.972Z,-0.60
2019-01-31T06:20:39.436Z,-0.60
2019-01-31T06:23:22.122Z,-0.40
2019-01-31T06:29:25.646Z,-0.40
2019-01-31T06:32:12.350Z,-0.40
2019-01-31T06:34:46.444Z,-0.30
2019-01-31T06:37:20.996Z,-0.30
2019-01-31T06:43:29.635Z,-0.30
2019-01-31T06:46:09.071Z,-0.30
2019-01-31T06:48:44.810Z,-0.30
2019-01-31T06:51:20.666Z,-0.30
2019-01-31T06:54:02.663Z,-0.20
2019-01-31T06:56:37.900Z,-0.20
2019-01-31T06:59:16.830Z,-0.20
2019-01-31T07:01:57.805Z,-0.20
2019-01-31T07:04:36.939Z,-0.20
2019-01-31T07:07:14.007Z,-0.30
2019-01-31T07:09:52.738Z,-0.40
2019-01-31T07:12:31.651Z,-0.40
2019-01-31T07:15:09.144Z,-0.40
2019-01-31T07:17:45.005Z,-0.40
2019-01-31T07:20:25.040Z,-0.50
2019-01-31T07:23:02.467Z,-0.50
2019-01-31T07:28:37.282Z,-0.60
2019-01-31T07:31:11.908Z,-0.60
2019-01-31T07:33:48.463Z,-0.80
2019-01-31T07:36:24.022Z,-0.70
2019-01-31T07:39:00.699Z,-0.70
2019-01-31T07:41:41.481Z,-0.70
2019-01-31T07:44:20.085Z,-0.80
2019-01-31T07:50:34.556Z,-0.80
2019-01-31T07:53:12.837Z,-0.80
2019-01-31T07:55:48.517Z,-0.80
2019-01-31T07:58:27.034Z,-0.80
2019-01-31T08:04:43.657Z,-0.80
2019-01-31T08:07:21.557Z,-0.70
2019-01-31T08:09:57.624Z,-0.80
2019-01-31T08:12:34.560Z,-0.90
2019-01-31T08:15:13.829Z,-0.70
2019-01-31T08:17:53.775Z,-0.60
2019-01-31T08:20:31.675Z,-0.60
2019-01-31T08:23:13.888Z,-0.70
2019-01-31T08:25:56.692Z,-0.80
2019-01-31T08:28:33.160Z,-1.00
2019-01-31T08:31:08.816Z,-1.00
2019-01-31T08:33:44.296Z,-1.20
2019-01-31T08:36:20.513Z,-1.10
2019-01-31T08:38:59.304Z,-1.00
2019-01-31T08:41:35.322Z,-1.10
2019-01-31T08:44:10.733Z,-1.20
2019-01-31T08:46:46.592Z,-1.20
2019-01-31T08:49:25.353Z,-1.10
2019-01-31T09:02:25.323Z,-1.20
2019-01-31T09:05:06.981Z,-1.10
2019-01-31T09:11:02.511Z,-1.00
2019-01-31T09:17:20.573Z,-0.70
2019-01-31T09:23:48.327Z,-0.60
2019-01-31T09:34:12.690Z,-0.40
2019-01-31T09:37:22.540Z,-0.40
2019-01-31T09:40:30.547Z,-0.40
2019-01-31T09:46:51.681Z,-0.60
2019-01-31T09:53:07.018Z,-0.60
2019-01-31T10:00:02.617Z,-0.20
2019-01-31T10:03:28.489Z,-0.20
2019-01-31T10:09:40.768Z,-0.30
2019-01-31T10:15:47.769Z,-0.10
2019-01-31T10:18:53.412Z,0.10
2019-01-31T10:25:58.890Z,0.00
2019-01-31T10:32:55.249Z,0.30
2019-01-31T10:36:08.792Z,0.20
2019-01-31T10:42:53.674Z,0.10
2019-01-31T10:45:55.948Z,0.00
2019-01-31T10:49:07.852Z,0.30
2019-01-31T10:52:20.408Z,0.30
2019-01-31T10:55:42.707Z,0.50
2019-01-31T10:58:50.362Z,0.60
2019-01-31T11:05:37.846Z,0.60
2019-01-31T11:08:59.984Z,0.70
2019-01-31T11:12:09.836Z,0.90
2019-01-31T11:15:04.741Z,0.90
2019-01-31T11:18:05.575Z,1.10
2019-01-31T11:21:20.365Z,1.30
2019-01-31T11:24:38.581Z,1.30
2019-01-31T11:28:01.133Z,1.40
2019-01-31T11:31:05.658Z,1.50
2019-01-31T11:34:35.577Z,1.70
2019-01-31T11:37:29.858Z,1.80
2019-01-31T11:40:20.366Z,1.90
2019-01-31T11:43:33.591Z,2.10
2019-01-31T11:46:31.760Z,1.90
2019-01-31T11:49:59.836Z,1.80
2019-01-31T11:53:02.365Z,1.70
2019-01-31T11:56:22.009Z,1.70
2019-01-31T12:02:25.372Z,1.70
2019-01-31T12:08:30.883Z,1.10
2019-01-31T12:14:33.576Z,1.30
2019-01-31T12:17:09.635Z,1.30
2019-01-31T12:19:45.690Z,1.50
2019-01-31T12:26:14.010Z,1.40
2019-01-31T12:32:19.386Z,1.40
2019-01-31T12:38:23.366Z,1.40
2019-01-31T12:44:28.413Z,1.50
2019-01-31T12:50:32.580Z,2.00
2019-01-31T12:53:08.847Z,2.20
2019-01-31T12:55:44.898Z,2.10
2019-01-31T12:58:19.378Z,2.30
2019-01-31T13:00:53.940Z,2.10
2019-01-31T13:03:29.589Z,1.80
2019-01-31T13:06:07.693Z,1.90
2019-01-31T13:08:43.967Z,1.90
2019-01-31T13:11:20.832Z,1.90
2019-01-31T13:13:57.375Z,2.00
2019-01-31T13:16:37.375Z,2.10
2019-01-31T13:19:13.642Z,2.10
2019-01-31T13:21:51.001Z,2.20
2019-01-31T13:24:26.856Z,2.00
2019-01-31T13:27:02.918Z,2.10
2019-01-31T13:29:45.942Z,2.30
2019-01-31T13:32:21.993Z,2.30
2019-01-31T13:34:58.378Z,2.10
2019-01-31T13:37:34.923Z,2.10
2019-01-31T13:40:16.104Z,1.90
2019-01-31T13:42:51.749Z,1.90
2019-01-31T13:45:49.624Z,1.90
2019-01-31T13:48:27.010Z,2.10
2019-01-31T13:51:02.860Z,2.20
2019-01-31T13:53:38.533Z,2.30
2019-01-31T13:56:13.747Z,2.40
2019-01-31T13:58:50.012Z,2.40
2019-01-31T14:01:25.535Z,2.40
2019-01-31T14:04:01.098Z,2.40
2019-01-31T14:06:34.903Z,2.40
2019-01-31T14:12:43.957Z,2.50
2019-01-31T14:19:00.613Z,2.70
2019-01-31T14:25:05.130Z,2.70
2019-01-31T14:27:40.976Z,2.60
2019-01-31T14:30:27.890Z,2.70
2019-01-31T14:33:07.028Z,2.80
2019-01-31T14:35:43.896Z,2.80
2019-01-31T14:41:38.652Z,2.70
2019-01-31T14:47:43.618Z,2.80
2019-01-31T14:53:47.083Z,2.70
2019-01-31T14:56:21.618Z,2.60
2019-01-31T14:59:00.019Z,2.70
2019-01-31T15:01:36.072Z,2.60
2019-01-31T15:04:14.622Z,2.70
2019-01-31T15:06:54.335Z,2.70
2019-01-31T15:09:29.982Z,2.80
2019-01-31T15:12:07.622Z,2.80
2019-01-31T15:14:44.963Z,2.80
2019-01-31T15:20:37.562Z,2.70
2019-01-31T15:23:08.635Z,2.70
2019-01-31T15:29:26.836Z,2.70
2019-01-31T15:32:08.213Z,2.70
2019-01-31T15:34:45.296Z,2.70
2019-01-31T15:41:00.691Z,2.50
2019-01-31T15:43:40.235Z,2.50
2019-01-31T15:46:17.918Z,2.50
2019-01-31T15:48:54.191Z,2.60
2019-01-31T15:51:33.936Z,2.50
2019-01-31T15:54:21.601Z,2.40
2019-01-31T15:57:02.979Z,2.50
2019-01-31T15:59:39.924Z,2.50
2019-01-31T16:02:15.711Z,2.40
2019-01-31T16:04:49.991Z,2.20
2019-01-31T16:07:26.255Z,2.00
2019-01-31T16:13:30.720Z,1.90
2019-01-31T16:16:06.050Z,1.80
2019-01-31T16:18:42.104Z,1.80
2019-01-31T16:21:18.710Z,1.70
2019-01-31T16:23:54.710Z,1.70
2019-01-31T16:26:30.269Z,1.70
2019-01-31T16:32:35.233Z,1.70
2019-01-31T16:38:30.726Z,1.60
2019-01-31T16:44:39.195Z,1.50
2019-01-31T16:47:18.114Z,1.50
2019-01-31T16:49:56.230Z,1.50
2019-01-31T16:52:34.120Z,1.60
2019-01-31T16:55:11.202Z,1.60
2019-01-31T17:01:16.069Z,1.60
2019-01-31T17:07:22.951Z,1.80
2019-01-31T17:09:59.214Z,1.90
2019-01-31T17:12:36.733Z,1.80
2019-01-31T17:15:19.929Z,1.80
2019-01-31T17:17:59.099Z,1.90
2019-01-31T17:24:00.940Z,1.90
2019-01-31T17:26:38.729Z,1.80
2019-01-31T17:29:14.081Z,1.80
2019-01-31T17:31:52.726Z,1.80
2019-01-31T17:34:29.060Z,1.80
2019-01-31T17:37:09.214Z,1.90
2019-01-31T17:43:28.827Z,1.90
2019-01-31T17:49:44.107Z,1.90
2019-01-31T18:02:45.450Z,1.70
2019-01-31T18:05:18.207Z,1.70
2019-01-31T18:07:57.875Z,1.80
2019-01-31T18:10:34.000Z,1.90
2019-01-31T18:13:13.954Z,1.90
2019-01-31T18:15:50.214Z,1.90
2019-01-31T18:18:25.737Z,1.80
2019-01-31T18:21:02.123Z,1.80
2019-01-31T18:23:37.362Z,1.70
2019-01-31T18:26:13.008Z,1.80
2019-01-31T18:28:49.271Z,1.90
2019-01-31T18:31:24.746Z,1.90
2019-01-31T18:33:59.953Z,1.90
2019-01-31T18:36:35.735Z,1.80
2019-01-31T18:39:13.740Z,1.80
2019-01-31T18:41:48.329Z,1.70
2019-01-31T18:44:26.856Z,1.70
2019-01-31T18:47:01.674Z,1.80
2019-01-31T18:49:37.322Z,1.90
2019-01-31T18:52:12.149Z,1.80
2019-01-31T18:57:52.322Z,1.70
2019-01-31T19:00:29.407Z,1.80
2019-01-31T19:03:05.461Z,1.70
2019-01-31T19:05:40.935Z,1.70
2019-01-31T19:08:14.945Z,1.80
2019-01-31T19:10:50.357Z,1.80
2019-01-31T19:13:26.418Z,1.80
2019-01-31T19:16:05.221Z,1.80
2019-01-31T19:18:43.445Z,1.80
2019-01-31T19:21:18.480Z,1.90
2019-01-31T19:23:54.536Z,1.90
2019-01-31T19:26:31.208Z,1.90
2019-01-31T19:29:07.265Z,1.90
2019-01-31T19:31:42.942Z,1.90
2019-01-31T19:34:17.333Z,1.90
2019-01-31T19:43:30.296Z,1.80
2019-01-31T19:46:16.173Z,1.80
2019-01-31T19:52:11.946Z,2.00
2019-01-31T20:01:43.311Z,1.80
2019-01-31T20:04:20.931Z,1.80
2019-01-31T20:06:55.631Z,1.90
2019-01-31T20:09:31.277Z,1.90
2019-01-31T20:15:35.413Z,2.00
2019-01-31T20:18:12.494Z,1.90
2019-01-31T20:20:46.940Z,1.80
2019-01-31T20:26:50.229Z,1.80
2019-01-31T20:29:25.936Z,1.80
2019-01-31T20:32:01.524Z,1.80
2019-01-31T20:34:39.427Z,1.80
2019-01-31T20:37:14.933Z,1.80
2019-01-31T20:39:49.940Z,1.80
2019-01-31T20:42:25.346Z,1.80
2019-01-31T20:47:53.433Z,2.00
2019-01-31T20:50:29.939Z,2.00
2019-01-31T20:53:05.762Z,1.90
2019-01-31T20:55:52.461Z,1.90
2019-01-31T20:58:31.938Z,1.90
2019-01-31T21:01:06.213Z,2.10
2019-01-31T21:07:12.935Z,2.00
2019-01-31T21:17:36.934Z,2.00
2019-01-31T21:23:52.433Z,2.20
2019-01-31T21:26:27.006Z,2.30
2019-01-31T21:29:01.935Z,2.30
2019-01-31T21:31:35.936Z,2.40
2019-01-31T21:34:16.458Z,2.30
2019-01-31T21:36:51.937Z,2.30
2019-01-31T21:39:27.142Z,2.30
2019-01-31T21:42:10.160Z,2.40
2019-01-31T21:44:45.808Z,2.30
2019-01-31T21:47:19.937Z,2.20
2019-01-31T21:49:54.442Z,2.30
2019-01-31T21:52:29.945Z,2.30
2019-01-31T21:55:03.939Z,2.20
2019-01-31T21:57:38.522Z,2.20
2019-01-31T22:00:19.954Z,2.10
2019-01-31T22:02:54.320Z,2.20
2019-01-31T22:05:31.403Z,2.20
2019-01-31T22:08:06.437Z,2.20
2019-01-31T22:10:42.492Z,2.20
2019-01-31T22:13:17.968Z,2.10
2019-01-31T22:18:48.940Z,2.00
2019-01-31T22:21:25.156Z,2.10
2019-01-31T22:24:00.939Z,2.10
2019-01-31T22:26:35.223Z,2.10
2019-01-31T22:29:09.237Z,2.10
2019-01-31T22:31:44.881Z,2.00
2019-01-31T22:34:19.504Z,2.00
2019-01-31T22:36:54.539Z,2.20
2019-01-31T22:39:29.014Z,2.30
2019-01-31T22:42:04.019Z,2.20
2019-01-31T22:44:39.230Z,2.20
2019-01-31T22:47:13.239Z,2.20
2019-01-31T22:49:49.500Z,2.10
2019-01-31T22:52:24.534Z,2.20
2019-01-31T22:55:00.015Z,2.10
2019-01-31T22:57:35.043Z,2.00
2019-01-31T23:00:26.222Z,2.00
2019-01-31T23:03:08.952Z,2.00
2019-01-31T23:05:48.018Z,1.90
2019-01-31T23:08:23.025Z,2.00
2019-01-31T23:10:57.033Z,2.10
2019-01-31T23:13:31.632Z,2.10
2019-01-31T23:16:08.506Z,2.20
2019-01-31T23:18:43.343Z,2.20
2019-01-31T23:21:20.033Z,2.10
2019-01-31T23:23:54.221Z,2.20
2019-01-31T23:26:28.232Z,2.10
2019-01-31T23:29:04.496Z,2.20
2019-01-31T23:31:40.015Z,2.20
2019-01-31T23:34:15.587Z,2.20
2019-01-31T23:36:51.439Z,2.10
2019-01-31T23:39:26.471Z,2.00
2019-01-31T23:42:01.507Z,2.00
2019-01-31T23:44:37.565Z,2.00
2019-01-31T23:47:12.390Z,1.90
2019-01-31T23:49:49.475Z,1.90
2019-01-31T23:52:24.015Z,2.00
2019-01-31T23:54:58.014Z,2.00
2019-01-31T23:57:33.343Z,2.00
